Terminal Aerodrome Forecast
Issued by NWS Corpus Christi, TX

Home | Current Version | Previous Version | Text Only | Print | Product List | Glossary On
Versions: 1 2 3 4 5 6 7 8 9 10 11 12 13 14 15
000
FTUS44 KCRP 312131 AAA
TAFVCT
TAF AMD
KVCT 312131Z 3122/0118 VRB06KT P6SM VCTS FEW040CB BKN150
      TEMPO 3122/3124 VRB15G30KT 5SM TSRA BR OVC040CB
     FM010100 VRB06KT P6SM SCT250
     FM011400 VRB04KT P6SM FEW025 SCT050=

USA.gov is the U.S. government's official web portal to all federal, state and local government web resources and services.